createdAt,value
2019-04-28T00:02:18.149Z,8.54
2019-04-28T00:04:48.727Z,8.47
2019-04-28T00:07:19.302Z,8.40
2019-04-28T00:09:51.121Z,8.36
2019-04-28T00:12:22.960Z,8.31
2019-04-28T00:14:53.827Z,8.24
2019-04-28T00:17:25.060Z,8.20
2019-04-28T00:19:57.527Z,8.17
2019-04-28T00:22:51.503Z,8.11
2019-04-28T00:25:28.409Z,8.07
2019-04-28T00:27:59.202Z,8.02
2019-04-28T00:30:31.710Z,7.99
2019-04-28T00:33:02.509Z,7.95
2019-04-28T00:35:41.833Z,7.93
2019-04-28T00:38:11.517Z,7.88
2019-04-28T00:40:42.444Z,7.84
2019-04-28T00:43:15.524Z,7.80
2019-04-28T00:45:48.895Z,7.78
2019-04-28T00:48:20.922Z,7.81
2019-04-28T00:50:52.868Z,7.91
2019-04-28T00:53:24.006Z,8.02
2019-04-28T00:56:03.961Z,8.08
2019-04-28T00:58:35.014Z,8.07
2019-04-28T01:01:09.229Z,8.00
2019-04-28T01:03:41.763Z,7.92
2019-04-28T01:06:14.067Z,7.84
2019-04-28T01:08:44.805Z,7.78
2019-04-28T01:11:15.798Z,7.72
2019-04-28T01:13:57.028Z,7.68
2019-04-28T01:16:42.090Z,7.63
2019-04-28T01:19:25.962Z,7.58
2019-04-28T01:22:16.723Z,7.53
2019-04-28T01:24:49.554Z,7.49
2019-04-28T01:27:41.913Z,7.47
2019-04-28T01:30:21.103Z,7.46
2019-04-28T01:33:06.787Z,7.43
2019-04-28T01:35:39.177Z,7.40
2019-04-28T01:38:09.931Z,7.37
2019-04-28T01:40:42.136Z,7.34
2019-04-28T01:43:12.744Z,7.33
2019-04-28T01:45:43.734Z,7.29
2019-04-28T01:48:16.058Z,7.24
2019-04-28T01:50:59.798Z,7.21
2019-04-28T01:53:30.959Z,7.18
2019-04-28T01:56:01.759Z,7.17
2019-04-28T01:58:32.387Z,7.14
2019-04-28T02:01:03.092Z,7.12
2019-04-28T02:03:34.188Z,7.10
2019-04-28T02:06:04.774Z,7.08
2019-04-28T02:08:35.384Z,7.05
2019-04-28T02:11:19.822Z,7.03
2019-04-28T02:13:50.422Z,7.01
2019-04-28T02:16:20.853Z,6.98
2019-04-28T02:18:52.680Z,6.94
2019-04-28T02:21:39.633Z,6.93
2019-04-28T02:24:27.543Z,6.93
2019-04-28T02:27:00.631Z,6.92
2019-04-28T02:29:32.616Z,6.91
2019-04-28T02:32:04.878Z,6.91
2019-04-28T02:34:35.481Z,6.91
2019-04-28T02:37:07.243Z,6.91
2019-04-28T02:39:37.641Z,6.91
2019-04-28T02:42:10.955Z,6.91
2019-04-28T02:44:41.673Z,6.91
2019-04-28T02:47:11.993Z,6.88
2019-04-28T02:49:54.097Z,6.87
2019-04-28T02:52:42.274Z,6.86
2019-04-28T02:55:12.662Z,6.84
2019-04-28T02:57:51.625Z,6.82
2019-04-28T03:00:24.537Z,6.80
2019-04-28T03:02:55.135Z,6.77
2019-04-28T03:05:25.720Z,6.75
2019-04-28T03:07:56.360Z,6.72
2019-04-28T03:10:27.137Z,6.69
2019-04-28T03:12:57.460Z,6.67
2019-04-28T03:15:30.185Z,6.64
2019-04-28T03:18:07.826Z,6.61
2019-04-28T03:20:38.341Z,6.58
2019-04-28T03:23:12.284Z,6.55
2019-04-28T03:25:56.700Z,6.51
2019-04-28T03:29:00.961Z,6.46
2019-04-28T03:32:15.604Z,6.43
2019-04-28T03:34:23.610Z,6.36
2019-04-28T03:36:54.356Z,6.33
2019-04-28T03:39:42.499Z,6.32
2019-04-28T03:42:12.840Z,6.28
2019-04-28T03:44:43.202Z,6.26
2019-04-28T03:47:13.756Z,6.25
2019-04-28T03:49:44.366Z,6.24
2019-04-28T03:52:15.157Z,6.23
2019-04-28T03:54:52.032Z,6.47
2019-04-28T03:57:31.879Z,6.39
2019-04-28T04:00:02.690Z,6.33
2019-04-28T04:02:33.002Z,6.30
2019-04-28T04:05:04.085Z,6.27
2019-04-28T04:07:34.507Z,6.26
2019-04-28T04:10:11.495Z,6.25
2019-04-28T04:13:01.697Z,6.25
2019-04-28T04:15:53.515Z,6.24
2019-04-28T04:18:27.562Z,6.23
2019-04-28T04:21:00.628Z,6.21
2019-04-28T04:23:30.932Z,6.22
2019-04-28T04:26:12.215Z,6.23
2019-04-28T04:28:42.662Z,6.22
2019-04-28T04:31:13.369Z,6.23
2019-04-28T04:33:45.363Z,6.24
2019-04-28T04:36:15.827Z,6.25
2019-04-28T04:38:46.585Z,6.28
2019-04-28T04:41:17.116Z,6.30
2019-04-28T04:43:47.520Z,6.33
2019-04-28T04:46:26.731Z,6.35
2019-04-28T04:48:57.098Z,6.38
2019-04-28T04:51:30.656Z,6.41
2019-04-28T04:54:01.079Z,6.44
2019-04-28T04:56:31.938Z,6.49
2019-04-28T04:59:02.941Z,6.56
2019-04-28T05:02:01.726Z,6.63
2019-04-28T05:04:50.974Z,6.71
2019-04-28T05:07:21.442Z,6.78
2019-04-28T05:09:52.097Z,6.85
2019-04-28T05:12:22.862Z,6.94
2019-04-28T05:15:04.314Z,7.03
2019-04-28T05:17:34.905Z,7.08
2019-04-28T05:20:05.657Z,7.17
2019-04-28T05:22:42.729Z,7.21
2019-04-28T05:25:30.861Z,7.27
2019-04-28T05:28:11.579Z,7.33
2019-04-28T05:30:55.941Z,7.37
2019-04-28T05:33:30.590Z,7.43
2019-04-28T05:36:02.973Z,7.47
2019-04-28T05:38:32.151Z,7.53
2019-04-28T05:41:13.347Z,7.60
2019-04-28T05:43:42.531Z,7.70
2019-04-28T05:46:16.262Z,7.85
2019-04-28T05:48:54.006Z,8.01
2019-04-28T05:51:26.171Z,8.18
2019-04-28T05:54:04.048Z,8.35
2019-04-28T05:56:53.567Z,8.53
2019-04-28T06:00:03.640Z,8.71
2019-04-28T06:02:53.551Z,8.88
2019-04-28T06:05:10.888Z,9.03
2019-04-28T06:08:03.540Z,9.16
2019-04-28T06:10:34.231Z,9.31
2019-04-28T06:13:04.791Z,9.44
2019-04-28T06:15:35.815Z,9.54
2019-04-28T06:18:16.948Z,9.62
2019-04-28T06:20:49.661Z,9.72
2019-04-28T06:23:20.164Z,9.80
2019-04-28T06:25:53.837Z,9.86
2019-04-28T06:28:26.897Z,9.90
2019-04-28T06:31:00.060Z,9.93
2019-04-28T06:33:31.928Z,9.94
2019-04-28T06:36:11.386Z,9.96
2019-04-28T06:38:41.637Z,9.97
2019-04-28T06:41:12.542Z,9.98
2019-04-28T06:43:45.041Z,10.05
2019-04-28T06:46:15.783Z,10.12
2019-04-28T06:48:46.157Z,10.23
2019-04-28T06:51:18.298Z,10.34
2019-04-28T06:54:01.938Z,10.43
2019-04-28T06:56:26.865Z,10.56
2019-04-28T06:58:59.094Z,10.69
2019-04-28T07:01:33.123Z,10.81
2019-04-28T07:04:03.633Z,10.91
2019-04-28T07:06:34.250Z,11.01
2019-04-28T07:09:06.334Z,11.06
2019-04-28T07:11:36.800Z,11.09
2019-04-28T07:14:07.306Z,11.10
2019-04-28T07:16:51.463Z,11.12
2019-04-28T07:19:24.419Z,11.14
2019-04-28T07:22:00.529Z,11.18
2019-04-28T07:24:31.028Z,11.25
2019-04-28T07:27:01.668Z,11.37
2019-04-28T07:29:33.282Z,11.54
2019-04-28T07:32:17.948Z,11.73
2019-04-28T07:34:52.175Z,11.92
2019-04-28T07:37:35.453Z,12.05
2019-04-28T07:40:09.388Z,12.25
2019-04-28T07:42:41.608Z,12.54
2019-04-28T07:45:12.400Z,12.68
2019-04-28T07:47:46.510Z,12.77
2019-04-28T07:50:18.025Z,12.81
2019-04-28T07:53:13.825Z,12.85
2019-04-28T07:55:44.904Z,12.87
2019-04-28T07:58:15.630Z,12.91
2019-04-28T08:01:03.466Z,13.01
2019-04-28T08:03:35.013Z,13.05
2019-04-28T08:06:05.544Z,13.10
2019-04-28T08:08:38.455Z,13.09
2019-04-28T08:11:11.853Z,13.10
2019-04-28T08:13:42.328Z,13.15
2019-04-28T08:16:12.875Z,13.24
2019-04-28T08:18:53.743Z,13.32
2019-04-28T08:21:21.077Z,13.34
2019-04-28T08:23:51.467Z,13.37
2019-04-28T08:26:23.176Z,13.39
2019-04-28T08:28:53.778Z,13.46
2019-04-28T08:31:27.234Z,13.50
2019-04-28T08:34:02.804Z,13.79
2019-04-28T08:36:33.879Z,13.75
2019-04-28T08:39:15.236Z,13.86
2019-04-28T08:41:46.105Z,13.94
2019-04-28T08:44:16.659Z,14.03
2019-04-28T08:46:47.097Z,14.09
2019-04-28T08:49:18.141Z,14.15
2019-04-28T08:51:48.743Z,14.24
2019-04-28T08:54:19.063Z,14.34
2019-04-28T08:56:49.648Z,14.42
2019-04-28T08:59:30.007Z,14.42
2019-04-28T09:02:00.712Z,14.39
2019-04-28T09:04:31.156Z,14.49
2019-04-28T09:07:01.755Z,14.57
2019-04-28T09:09:32.074Z,14.60
2019-04-28T09:12:02.575Z,14.66
2019-04-28T09:14:33.010Z,14.75
2019-04-28T09:17:03.812Z,14.86
2019-04-28T09:19:44.677Z,14.89
2019-04-28T09:22:11.259Z,15.03
2019-04-28T09:24:41.705Z,15.17
2019-04-28T09:27:12.030Z,15.38
2019-04-28T09:29:42.426Z,15.57
2019-04-28T09:32:14.815Z,15.60
2019-04-28T09:34:45.528Z,15.59
2019-04-28T09:37:15.976Z,15.70
2019-04-28T09:39:50.453Z,15.88
2019-04-28T09:42:55.000Z,15.91
2019-04-28T09:45:55.734Z,15.81
2019-04-28T09:48:33.849Z,15.74
2019-04-28T09:51:04.466Z,15.71
2019-04-28T09:53:35.148Z,15.87
2019-04-28T09:56:05.543Z,15.97
2019-04-28T09:58:36.012Z,15.98
2019-04-28T10:01:07.486Z,16.08
2019-04-28T10:03:38.084Z,16.25
2019-04-28T10:06:08.564Z,16.35
2019-04-28T10:08:46.956Z,16.44
2019-04-28T10:11:29.688Z,16.54
2019-04-28T10:13:49.916Z,16.56
2019-04-28T10:16:20.519Z,16.60
2019-04-28T10:18:50.931Z,16.60
2019-04-28T10:21:21.457Z,16.62
2019-04-28T10:23:52.001Z,16.58
2019-04-28T10:26:22.482Z,16.57
2019-04-28T10:29:08.382Z,16.61
2019-04-28T10:31:35.013Z,16.59
2019-04-28T10:34:06.216Z,16.49
2019-04-28T10:36:36.676Z,16.42
2019-04-28T10:39:29.182Z,16.42
2019-04-28T10:41:59.927Z,16.52
2019-04-28T10:44:49.674Z,16.71
2019-04-28T10:47:20.626Z,16.83
2019-04-28T10:49:51.438Z,16.93
2019-04-28T10:52:22.251Z,17.04
2019-04-28T10:54:56.383Z,17.13
2019-04-28T10:57:29.495Z,17.13
2019-04-28T11:00:09.869Z,17.11
2019-04-28T11:02:43.322Z,17.09
2019-04-28T11:05:22.165Z,16.98
2019-04-28T11:07:53.966Z,16.85
2019-04-28T11:10:30.474Z,16.85
2019-04-28T11:13:23.584Z,16.86
2019-04-28T11:15:45.306Z,16.95
2019-04-28T11:18:16.505Z,16.91
2019-04-28T11:20:47.318Z,17.00
2019-04-28T11:23:17.943Z,17.13
2019-04-28T11:25:48.593Z,17.30
2019-04-28T11:28:19.064Z,17.44
2019-04-28T11:30:49.439Z,17.50
2019-04-28T11:33:35.742Z,17.74
2019-04-28T11:36:07.170Z,17.60
2019-04-28T11:38:37.676Z,17.53
2019-04-28T11:41:13.786Z,17.50
2019-04-28T11:43:44.705Z,17.36
2019-04-28T11:46:17.603Z,17.19
2019-04-28T11:48:54.545Z,17.20
2019-04-28T11:51:49.847Z,17.28
2019-04-28T11:54:20.303Z,17.33
2019-04-28T11:56:50.999Z,17.37
2019-04-28T11:59:21.493Z,17.66
2019-04-28T12:01:52.355Z,17.62
2019-04-28T12:04:23.276Z,17.61
2019-04-28T12:07:08.864Z,17.61
2019-04-28T12:10:10.480Z,17.56
2019-04-28T12:13:03.466Z,17.56
2019-04-28T12:15:51.533Z,17.60
2019-04-28T12:18:43.493Z,17.71
2019-04-28T12:21:31.949Z,17.84
2019-04-28T12:24:02.640Z,17.98
2019-04-28T12:26:33.441Z,18.11
2019-04-28T12:29:03.999Z,18.20
2019-04-28T12:31:34.810Z,18.16
2019-04-28T12:34:09.536Z,18.19
2019-04-28T12:36:40.426Z,18.25
2019-04-28T12:39:21.413Z,18.35
2019-04-28T12:41:52.163Z,18.46
2019-04-28T12:44:23.183Z,18.48
2019-04-28T12:46:53.780Z,18.46
2019-04-28T12:49:37.410Z,18.46
2019-04-28T12:52:08.957Z,18.50
2019-04-28T12:54:51.439Z,18.43
2019-04-28T12:57:16.521Z,18.43
2019-04-28T12:59:53.196Z,18.53
2019-04-28T13:02:30.878Z,18.61
2019-04-28T13:05:04.338Z,18.67
2019-04-28T13:07:34.703Z,18.75
2019-04-28T13:10:06.435Z,18.94
2019-04-28T13:12:44.562Z,19.19
2019-04-28T13:15:15.307Z,19.36
2019-04-28T13:17:46.268Z,19.55
2019-04-28T13:20:17.105Z,19.77
2019-04-28T13:22:47.507Z,19.94
2019-04-28T13:25:20.581Z,20.11
2019-04-28T13:27:51.110Z,20.27
2019-04-28T13:30:22.104Z,20.58
2019-04-28T13:33:14.967Z,20.94
2019-04-28T13:35:48.809Z,21.29
2019-04-28T13:38:19.447Z,21.67
2019-04-28T13:40:52.598Z,22.01
2019-04-28T13:43:30.375Z,22.43
2019-04-28T13:46:13.497Z,22.78
2019-04-28T13:48:44.138Z,23.31
2019-04-28T13:51:14.534Z,23.82
2019-04-28T13:53:47.877Z,24.17
2019-04-28T13:56:18.697Z,24.66
2019-04-28T13:58:54.755Z,24.65
2019-04-28T14:01:43.282Z,23.87
2019-04-28T14:04:45.131Z,23.01
2019-04-28T14:07:15.584Z,21.93
2019-04-28T14:09:47.135Z,21.04
2019-04-28T14:12:35.341Z,20.47
2019-04-28T14:15:06.906Z,19.92
2019-04-28T14:17:37.511Z,19.29
2019-04-28T14:20:08.335Z,18.92
2019-04-28T14:22:38.802Z,18.63
2019-04-28T14:25:09.914Z,18.22
2019-04-28T14:27:41.680Z,17.95
2019-04-28T14:30:18.293Z,18.06
2019-04-28T14:32:48.182Z,17.89
2019-04-28T14:35:18.847Z,17.83
2019-04-28T14:37:54.397Z,17.98
2019-04-28T14:40:44.458Z,18.28
2019-04-28T14:43:15.484Z,18.54
2019-04-28T14:46:05.545Z,19.14
2019-04-28T14:48:36.082Z,19.91
2019-04-28T14:51:15.584Z,20.88
2019-04-28T14:53:46.862Z,21.85
2019-04-28T14:56:17.741Z,22.75
2019-04-28T14:58:48.364Z,23.89
2019-04-28T15:01:57.122Z,24.90
2019-04-28T15:04:46.654Z,25.66
2019-04-28T15:07:55.513Z,26.32
2019-04-28T15:10:35.274Z,27.14
2019-04-28T15:13:07.522Z,28.11
2019-04-28T15:15:47.793Z,29.00
2019-04-28T15:18:26.341Z,29.68
2019-04-28T15:21:06.714Z,30.54
2019-04-28T15:23:34.531Z,31.16
2019-04-28T15:26:05.199Z,31.77
2019-04-28T15:28:36.030Z,32.53
2019-04-28T15:31:26.694Z,32.06
2019-04-28T15:34:00.417Z,32.37
2019-04-28T15:36:30.986Z,33.91
2019-04-28T15:39:01.592Z,35.06
2019-04-28T15:41:32.036Z,34.48
2019-04-28T15:44:04.200Z,32.17
2019-04-28T15:46:47.958Z,30.26
2019-04-28T15:49:18.616Z,29.20
2019-04-28T15:51:49.431Z,29.17
2019-04-28T15:54:21.162Z,29.65
2019-04-28T15:56:51.683Z,29.45
2019-04-28T15:59:24.468Z,28.89
2019-04-28T16:01:58.930Z,28.43
2019-04-28T16:04:47.334Z,28.55
2019-04-28T16:07:24.768Z,30.26
2019-04-28T16:09:50.131Z,31.82
2019-04-28T16:12:20.651Z,32.57
2019-04-28T16:14:51.453Z,32.69
2019-04-28T16:17:22.199Z,31.56
2019-04-28T16:19:52.905Z,30.32
2019-04-28T16:22:23.386Z,30.75
2019-04-28T16:25:12.599Z,32.36
2019-04-28T16:27:43.336Z,32.85
2019-04-28T16:30:15.807Z,32.06
2019-04-28T16:32:46.389Z,30.53
2019-04-28T16:35:16.935Z,29.09
2019-04-28T16:37:47.485Z,27.80
2019-04-28T16:40:18.018Z,27.28
2019-04-28T16:43:13.056Z,26.07
2019-04-28T16:45:43.654Z,24.87
2019-04-28T16:48:15.164Z,23.82
2019-04-28T16:50:45.591Z,23.08
2019-04-28T16:53:16.163Z,22.43
2019-04-28T16:56:07.725Z,21.95
2019-04-28T16:59:03.945Z,21.62
2019-04-28T17:01:57.246Z,21.30
2019-04-28T17:04:43.164Z,20.81
2019-04-28T17:07:13.767Z,20.31
2019-04-28T17:09:44.407Z,19.98
2019-04-28T17:12:15.115Z,19.69
2019-04-28T17:14:46.162Z,19.42
2019-04-28T17:17:17.146Z,19.63
2019-04-28T17:20:06.200Z,19.67
2019-04-28T17:22:29.749Z,19.47
2019-04-28T17:25:00.367Z,19.29
2019-04-28T17:27:30.874Z,19.24
2019-04-28T17:30:01.311Z,20.34
2019-04-28T17:32:31.828Z,22.72
2019-04-28T17:35:02.169Z,24.12
2019-04-28T17:37:36.846Z,25.17
2019-04-28T17:40:07.815Z,25.92
2019-04-28T17:42:56.325Z,26.50
2019-04-28T17:45:26.970Z,26.83
2019-04-28T17:48:00.145Z,26.76
2019-04-28T17:50:33.693Z,26.60
2019-04-28T17:53:04.918Z,26.33
2019-04-28T17:55:35.492Z,26.06
2019-04-28T17:58:17.803Z,25.43
2019-04-28T18:01:08.595Z,24.54
2019-04-28T18:03:52.262Z,23.88
2019-04-28T18:06:22.962Z,23.94
2019-04-28T18:09:05.510Z,24.13
2019-04-28T18:11:28.807Z,24.24
2019-04-28T18:13:59.546Z,24.21
2019-04-28T18:17:03.848Z,24.19
2019-04-28T18:19:34.572Z,24.12
2019-04-28T18:22:13.193Z,23.57
2019-04-28T18:24:41.978Z,23.23
2019-04-28T18:27:12.483Z,22.75
2019-04-28T18:29:42.859Z,21.78
2019-04-28T18:32:28.038Z,20.75
2019-04-28T18:35:05.086Z,19.88
2019-04-28T18:38:03.634Z,19.02
2019-04-28T18:40:46.503Z,18.37
2019-04-28T18:43:47.915Z,17.74
2019-04-28T18:46:22.611Z,17.30
2019-04-28T18:48:53.353Z,16.81
2019-04-28T18:51:23.881Z,16.44
2019-04-28T18:54:00.108Z,16.08
2019-04-28T18:56:30.648Z,15.75
2019-04-28T18:59:01.098Z,15.45
2019-04-28T19:01:46.682Z,15.18
2019-04-28T19:04:17.318Z,14.92
2019-04-28T19:06:48.390Z,14.60
2019-04-28T19:09:47.015Z,14.36
2019-04-28T19:12:37.957Z,14.15
2019-04-28T19:15:30.330Z,13.90
2019-04-28T19:18:15.232Z,13.71
2019-04-28T19:20:51.325Z,13.50
2019-04-28T19:23:22.877Z,13.32
2019-04-28T19:25:54.243Z,13.17
2019-04-28T19:28:33.545Z,13.02
2019-04-28T19:31:04.315Z,12.88
2019-04-28T19:33:34.962Z,12.72
2019-04-28T19:36:05.988Z,12.60
2019-04-28T19:38:46.520Z,12.48
2019-04-28T19:41:17.896Z,12.35
2019-04-28T19:43:48.518Z,12.22
2019-04-28T19:46:20.588Z,12.12
2019-04-28T19:48:51.267Z,12.01
2019-04-28T19:51:31.634Z,11.90
2019-04-28T19:53:56.104Z,11.82
2019-04-28T19:56:38.175Z,11.73
2019-04-28T19:59:19.318Z,11.65
2019-04-28T20:01:50.049Z,11.55
2019-04-28T20:04:20.611Z,11.45
2019-04-28T20:06:53.460Z,11.38
2019-04-28T20:09:24.020Z,11.30
2019-04-28T20:11:54.341Z,11.23
2019-04-28T20:14:29.839Z,11.17
2019-04-28T20:17:02.160Z,11.11
2019-04-28T20:19:32.971Z,11.03
2019-04-28T20:22:03.918Z,10.98
2019-04-28T20:24:46.658Z,10.92
2019-04-28T20:27:07.450Z,10.86
2019-04-28T20:29:37.926Z,10.80
2019-04-28T20:32:08.833Z,10.74
2019-04-28T20:34:52.330Z,10.68
2019-04-28T20:37:36.918Z,10.61
2019-04-28T20:40:12.636Z,10.54
2019-04-28T20:42:48.971Z,10.46
2019-04-28T20:45:21.622Z,10.40
2019-04-28T20:48:00.679Z,10.35
2019-04-28T20:50:31.266Z,10.29
2019-04-28T20:53:01.590Z,10.22
2019-04-28T20:55:33.486Z,10.17
2019-04-28T20:58:05.119Z,10.11
2019-04-28T21:00:35.525Z,10.07
2019-04-28T21:03:07.681Z,10.01
2019-04-28T21:05:38.203Z,9.96
2019-04-28T21:08:12.211Z,9.91
2019-04-28T21:10:43.394Z,9.86
2019-04-28T21:13:15.841Z,9.83
2019-04-28T21:15:46.478Z,9.78
2019-04-28T21:18:17.119Z,9.71
2019-04-28T21:20:47.651Z,9.67
2019-04-28T21:23:18.416Z,9.62
2019-04-28T21:25:51.339Z,9.57
2019-04-28T21:28:21.672Z,9.51
2019-04-28T21:30:59.045Z,9.46
2019-04-28T21:33:29.444Z,9.41
2019-04-28T21:35:59.750Z,9.37
2019-04-28T21:38:30.420Z,9.34
2019-04-28T21:41:00.984Z,9.28
2019-04-28T21:43:53.320Z,9.23
2019-04-28T21:46:36.692Z,9.19
2019-04-28T21:49:26.005Z,9.12
2019-04-28T21:51:56.625Z,9.08
2019-04-28T21:54:27.095Z,9.04
2019-04-28T21:56:58.247Z,9.02
2019-04-28T21:59:30.474Z,8.99
2019-04-28T22:02:02.534Z,8.94
2019-04-28T22:04:32.987Z,8.91
2019-04-28T22:07:03.344Z,8.87
2019-04-28T22:09:34.106Z,8.83
2019-04-28T22:12:04.530Z,8.78
2019-04-28T22:14:34.910Z,8.74
2019-04-28T22:17:06.575Z,8.69
2019-04-28T22:19:36.887Z,8.66
2019-04-28T22:22:08.558Z,8.61
2019-04-28T22:24:49.354Z,8.58
2019-04-28T22:27:27.915Z,8.54
2019-04-28T22:29:58.499Z,8.50
2019-04-28T22:32:28.956Z,8.49
2019-04-28T22:34:59.132Z,8.49
2019-04-28T22:37:30.271Z,8.48
2019-04-28T22:40:00.774Z,8.43
2019-04-28T22:42:41.923Z,8.40
2019-04-28T22:45:12.670Z,8.36
2019-04-28T22:47:43.168Z,8.33
2019-04-28T22:50:36.635Z,8.28
2019-04-28T22:53:07.373Z,8.25
2019-04-28T22:55:50.354Z,8.20
2019-04-28T22:58:39.328Z,8.19
2019-04-28T23:01:24.936Z,8.17
2019-04-28T23:04:10.047Z,8.12
2019-04-28T23:06:42.728Z,8.09
2019-04-28T23:09:17.667Z,8.07
2019-04-28T23:11:54.437Z,8.03
2019-04-28T23:14:26.537Z,7.99
2019-04-28T23:17:02.612Z,7.96
2019-04-28T23:19:41.303Z,7.94
2019-04-28T23:22:20.426Z,7.90
2019-04-28T23:24:55.014Z,7.87
2019-04-28T23:27:27.497Z,7.84
2019-04-28T23:30:00.654Z,8.05
2019-04-28T23:32:35.852Z,7.91
2019-04-28T23:35:12.744Z,7.84
2019-04-28T23:37:49.550Z,7.78
2019-04-28T23:40:28.644Z,7.73
2019-04-28T23:43:11.498Z,7.70
2019-04-28T23:46:05.088Z,7.68
2019-04-28T23:48:27.343Z,7.63
2019-04-28T23:51:18.347Z,7.59
2019-04-28T23:54:01.941Z,7.55
2019-04-28T23:56:39.923Z,7.50
2019-04-28T23:59:11.210Z,7.46
